createdAt,value
2019-05-20T00:01:53.070Z,14.37
2019-05-20T00:04:56.890Z,14.00
2019-05-20T00:08:00.710Z,13.60
2019-05-20T00:11:04.693Z,14.47
2019-05-20T00:14:08.590Z,14.53
2019-05-20T00:17:12.502Z,13.87
2019-05-20T00:20:16.470Z,13.70
2019-05-20T00:23:20.341Z,15.20
2019-05-20T00:26:24.141Z,16.63
2019-05-20T00:29:28.043Z,15.83
2019-05-20T00:32:40.660Z,16.40
2019-05-20T00:35:37.479Z,15.67
2019-05-20T00:38:41.316Z,13.83
2019-05-20T00:41:45.214Z,14.80
2019-05-20T00:44:49.096Z,15.30
2019-05-20T00:47:53.376Z,14.10
2019-05-20T00:50:57.285Z,15.13
2019-05-20T00:54:01.379Z,14.77
2019-05-20T00:57:05.267Z,13.80
2019-05-20T01:00:09.556Z,15.10
2019-05-20T01:03:13.374Z,16.03
2019-05-20T01:06:17.301Z,16.60
2019-05-20T01:09:21.255Z,16.43
2019-05-20T01:12:25.080Z,15.93
2019-05-20T01:15:29.057Z,16.83
2019-05-20T01:18:32.867Z,15.90
2019-05-20T01:21:36.833Z,16.03
2019-05-20T01:24:40.702Z,16.33
2019-05-20T01:27:44.516Z,16.03
2019-05-20T01:30:48.366Z,15.13
2019-05-20T01:33:52.259Z,15.03
2019-05-20T01:36:56.091Z,13.50
2019-05-20T01:39:59.977Z,13.13
2019-05-20T01:43:03.823Z,12.63
2019-05-20T01:46:07.645Z,12.63
2019-05-20T01:49:11.577Z,12.90
2019-05-20T01:52:15.494Z,14.60
2019-05-20T01:55:19.389Z,13.80
2019-05-20T01:58:23.197Z,12.80
2019-05-20T02:01:27.085Z,13.00
2019-05-20T02:04:30.971Z,12.00
2019-05-20T02:07:34.896Z,12.90
2019-05-20T02:10:38.801Z,13.67
2019-05-20T02:13:55.884Z,14.13
2019-05-20T02:17:02.666Z,14.03
2019-05-20T02:20:06.202Z,13.27
2019-05-20T02:23:16.540Z,14.67
2019-05-20T02:26:20.444Z,13.00
2019-05-20T02:29:24.307Z,13.83
2019-05-20T02:32:28.211Z,12.67
2019-05-20T02:35:32.116Z,12.90
2019-05-20T02:38:35.939Z,12.40
2019-05-20T02:41:39.869Z,12.97
2019-05-20T02:44:43.708Z,12.70
2019-05-20T02:47:47.671Z,13.27
2019-05-20T02:50:51.585Z,13.17
2019-05-20T02:53:55.438Z,12.10
2019-05-20T02:56:59.354Z,12.50
2019-05-20T03:00:03.274Z,12.30
2019-05-20T03:03:07.090Z,11.77
2019-05-20T03:06:10.923Z,11.80
2019-05-20T03:09:14.729Z,11.90
2019-05-20T03:12:18.576Z,12.53
2019-05-20T03:15:22.539Z,12.07
2019-05-20T03:18:26.544Z,12.37
2019-05-20T03:21:30.390Z,12.43
2019-05-20T03:24:34.320Z,12.87
2019-05-20T03:27:38.442Z,12.53
2019-05-20T03:30:43.061Z,13.47
2019-05-20T03:33:46.956Z,13.57
2019-05-20T03:36:50.813Z,13.50
2019-05-20T03:39:54.614Z,13.50
2019-05-20T03:42:58.527Z,13.77
2019-05-20T03:46:02.335Z,13.90
2019-05-20T03:49:06.161Z,15.27
2019-05-20T03:52:09.995Z,14.20
2019-05-20T03:55:14.241Z,13.43
2019-05-20T03:58:19.277Z,13.20
2019-05-20T04:01:24.653Z,13.40
2019-05-20T04:04:29.362Z,12.03
2019-05-20T04:07:33.311Z,12.47
2019-05-20T04:10:37.165Z,11.37
2019-05-20T04:13:41.032Z,12.97
2019-05-20T04:16:44.888Z,11.80
2019-05-20T04:19:48.738Z,13.03
2019-05-20T04:22:52.641Z,12.30
2019-05-20T04:25:56.576Z,12.77
2019-05-20T04:29:00.482Z,13.13
2019-05-20T04:32:04.480Z,13.20
2019-05-20T04:35:21.211Z,14.10
2019-05-20T04:38:14.477Z,13.93
2019-05-20T04:41:18.363Z,13.27
2019-05-20T04:44:22.274Z,14.63
2019-05-20T04:47:26.230Z,14.93
2019-05-20T04:50:30.096Z,15.03
2019-05-20T04:53:34.035Z,15.07
2019-05-20T04:56:38.026Z,15.10
2019-05-20T04:59:41.831Z,16.83
2019-05-20T05:02:45.671Z,17.27
2019-05-20T05:05:50.686Z,18.13
2019-05-20T05:08:54.616Z,19.00
2019-05-20T05:11:58.549Z,19.53
2019-05-20T05:15:07.176Z,20.37
2019-05-20T05:18:08.165Z,20.50
2019-05-20T05:21:12.052Z,20.27
2019-05-20T05:24:16.064Z,20.70
2019-05-20T05:27:20.074Z,20.10
2019-05-20T05:30:24.070Z,19.40
2019-05-20T05:33:28.068Z,20.23
2019-05-20T05:36:31.984Z,19.57
2019-05-20T05:39:35.983Z,19.10
2019-05-20T05:42:39.984Z,17.23
2019-05-20T05:45:43.910Z,18.13
2019-05-20T05:48:47.732Z,18.87
2019-05-20T05:51:51.608Z,18.27
2019-05-20T05:54:55.614Z,18.63
2019-05-20T05:57:59.496Z,18.93
2019-05-20T06:01:03.424Z,19.40
2019-05-20T06:04:07.246Z,19.57
2019-05-20T06:07:11.141Z,18.63
2019-05-20T06:10:15.263Z,18.87
2019-05-20T06:13:19.118Z,19.77
2019-05-20T06:16:35.798Z,19.40
2019-05-20T06:19:28.809Z,19.17
2019-05-20T06:22:32.754Z,18.77
2019-05-20T06:25:36.592Z,19.53
2019-05-20T06:28:40.421Z,20.50
2019-05-20T06:31:44.437Z,19.40
2019-05-20T06:34:48.338Z,20.33
2019-05-20T06:37:55.167Z,20.07
2019-05-20T06:40:58.970Z,19.90
2019-05-20T06:44:02.918Z,18.77
2019-05-20T06:47:06.835Z,19.27
2019-05-20T06:50:10.917Z,19.00
2019-05-20T06:53:14.760Z,18.37
2019-05-20T06:56:18.633Z,16.67
2019-05-20T06:59:22.476Z,17.73
2019-05-20T07:02:26.312Z,16.93
2019-05-20T07:05:30.327Z,17.70
2019-05-20T07:08:35.493Z,19.30
2019-05-20T07:11:39.429Z,16.57
2019-05-20T07:14:43.260Z,17.10
2019-05-20T07:17:47.105Z,16.63
2019-05-20T07:20:50.941Z,17.07
2019-05-20T07:23:54.789Z,18.33
2019-05-20T07:26:58.752Z,17.40
2019-05-20T07:30:02.613Z,17.23
2019-05-20T07:33:06.553Z,18.03
2019-05-20T07:36:10.397Z,16.13
2019-05-20T07:39:14.306Z,16.23
2019-05-20T07:42:18.283Z,17.17
2019-05-20T07:45:22.279Z,16.50
2019-05-20T07:48:26.889Z,16.50
2019-05-20T07:51:31.388Z,15.17
2019-05-20T07:54:35.900Z,15.67
2019-05-20T07:57:41.356Z,17.00
2019-05-20T08:00:45.283Z,18.10
2019-05-20T08:03:49.213Z,16.07
2019-05-20T08:06:53.226Z,16.30
2019-05-20T08:09:57.086Z,15.30
2019-05-20T08:13:01.013Z,14.90
2019-05-20T08:16:04.927Z,16.03
2019-05-20T08:19:08.854Z,17.00
2019-05-20T08:22:12.819Z,16.63
2019-05-20T08:25:16.805Z,15.90
2019-05-20T08:28:20.730Z,14.37
2019-05-20T08:31:24.578Z,14.80
2019-05-20T08:34:28.540Z,15.30
2019-05-20T08:37:44.840Z,16.00
2019-05-20T08:40:38.113Z,16.30
2019-05-20T08:43:41.924Z,13.10
2019-05-20T08:46:45.780Z,12.60
2019-05-20T08:49:49.999Z,13.50
2019-05-20T08:52:54.101Z,12.90
2019-05-20T08:55:58.050Z,11.57
2019-05-20T08:59:01.912Z,11.67
2019-05-20T09:02:05.926Z,12.53
2019-05-20T09:05:09.904Z,12.50
2019-05-20T09:08:13.826Z,12.13
2019-05-20T09:11:17.831Z,11.63
2019-05-20T09:14:21.654Z,12.63
2019-05-20T09:17:25.520Z,11.87
2019-05-20T09:20:29.476Z,12.33
2019-05-20T09:23:33.405Z,11.90
2019-05-20T09:26:37.336Z,11.40
2019-05-20T09:29:41.589Z,11.33
2019-05-20T09:32:45.667Z,10.87
2019-05-20T09:35:49.899Z,10.70
2019-05-20T09:38:53.765Z,11.97
2019-05-20T09:41:57.655Z,10.00
2019-05-20T09:45:03.195Z,9.37
2019-05-20T09:48:07.617Z,10.10
2019-05-20T09:51:11.519Z,9.07
2019-05-20T09:54:15.399Z,9.03
2019-05-20T09:57:19.323Z,9.00
2019-05-20T10:00:23.395Z,8.00
2019-05-20T10:03:27.241Z,8.57
2019-05-20T10:06:31.155Z,7.60
2019-05-20T10:09:34.960Z,8.70
2019-05-20T10:12:45.960Z,9.50
2019-05-20T10:15:44.574Z,7.80
2019-05-20T10:18:48.400Z,7.67
2019-05-20T10:21:52.236Z,6.47
2019-05-20T10:24:56.092Z,6.60
2019-05-20T10:27:59.949Z,7.53
2019-05-20T10:31:03.902Z,6.23
2019-05-20T10:34:07.804Z,6.47
2019-05-20T10:37:11.644Z,10.37
2019-05-20T10:40:15.704Z,7.13
2019-05-20T10:43:19.616Z,5.93
2019-05-20T10:46:23.443Z,6.03
2019-05-20T10:49:27.303Z,6.10
2019-05-20T10:52:31.185Z,7.00
2019-05-20T10:55:35.036Z,7.13
2019-05-20T10:58:38.971Z,7.70
2019-05-20T11:01:42.849Z,8.10
2019-05-20T11:04:46.909Z,7.87
2019-05-20T11:07:50.918Z,7.43
2019-05-20T11:10:54.717Z,7.93
2019-05-20T11:13:58.616Z,6.10
2019-05-20T11:17:02.603Z,6.60
2019-05-20T11:20:06.794Z,6.37
2019-05-20T11:23:10.627Z,5.80
2019-05-20T11:26:14.577Z,5.27
2019-05-20T11:29:18.629Z,5.10
2019-05-20T11:32:22.640Z,5.40
2019-05-20T11:35:26.627Z,5.50
2019-05-20T11:38:30.505Z,5.80
2019-05-20T11:41:52.607Z,5.53
2019-05-20T11:44:41.238Z,6.43
2019-05-20T11:47:45.102Z,6.10
2019-05-20T11:50:48.959Z,5.40
2019-05-20T11:53:52.880Z,6.13
2019-05-20T11:56:56.724Z,6.30
2019-05-20T12:00:07.327Z,5.40
2019-05-20T12:03:11.404Z,5.43
2019-05-20T12:06:15.267Z,5.50
2019-05-20T12:09:19.087Z,4.70
2019-05-20T12:12:22.988Z,5.00
2019-05-20T12:15:26.957Z,6.23
2019-05-20T12:18:30.833Z,6.37
2019-05-20T12:21:34.723Z,5.33
2019-05-20T12:24:38.587Z,4.97
2019-05-20T12:27:42.437Z,5.37
2019-05-20T12:30:46.299Z,7.63
2019-05-20T12:33:50.202Z,5.47
2019-05-20T12:36:54.050Z,5.70
2019-05-20T12:40:06.961Z,4.97
2019-05-20T12:43:03.415Z,5.30
2019-05-20T12:46:07.304Z,4.67
2019-05-20T12:49:11.332Z,4.53
2019-05-20T12:52:15.180Z,4.10
2019-05-20T12:55:19.284Z,4.63
2019-05-20T12:58:23.204Z,4.00
2019-05-20T13:01:27.064Z,4.57
2019-05-20T13:04:30.915Z,4.40
2019-05-20T13:07:34.727Z,5.37
2019-05-20T13:10:38.663Z,4.70
2019-05-20T13:13:42.465Z,4.37
2019-05-20T13:16:46.379Z,4.10
2019-05-20T13:19:50.215Z,4.90
2019-05-20T13:22:54.123Z,5.80
2019-05-20T13:25:57.959Z,4.70
2019-05-20T13:29:01.911Z,5.07
2019-05-20T13:32:05.839Z,4.30
2019-05-20T13:35:09.912Z,4.17
2019-05-20T13:38:13.838Z,4.30
2019-05-20T13:41:17.729Z,4.67
2019-05-20T13:44:21.605Z,4.37
2019-05-20T13:47:25.450Z,9.90
2019-05-20T13:50:29.409Z,5.20
2019-05-20T13:53:33.236Z,4.80
2019-05-20T13:56:37.444Z,4.50
2019-05-20T13:59:41.284Z,4.60
2019-05-20T14:02:45.115Z,4.50
2019-05-20T14:05:48.977Z,4.07
2019-05-20T14:08:52.830Z,4.40
2019-05-20T14:11:56.653Z,5.07
2019-05-20T14:15:00.475Z,4.10
2019-05-20T14:18:04.403Z,4.10
2019-05-20T14:21:08.337Z,5.10
2019-05-20T14:24:12.271Z,4.57
2019-05-20T14:27:16.109Z,4.30
2019-05-20T14:30:20.181Z,4.50
2019-05-20T14:33:24.025Z,4.10
2019-05-20T14:36:39.489Z,4.07
2019-05-20T14:39:33.492Z,4.40
2019-05-20T14:42:37.417Z,4.47
2019-05-20T14:45:41.363Z,5.83
2019-05-20T14:48:45.174Z,4.17
2019-05-20T14:51:49.013Z,3.93
2019-05-20T14:54:52.948Z,4.20
2019-05-20T14:57:58.723Z,4.10
2019-05-20T15:01:02.511Z,3.80
2019-05-20T15:04:06.382Z,4.60
2019-05-20T15:07:10.341Z,4.40
2019-05-20T15:10:14.524Z,4.03
2019-05-20T15:13:18.421Z,3.73
2019-05-20T15:16:22.344Z,3.77
2019-05-20T15:19:26.363Z,3.53
2019-05-20T15:22:30.187Z,4.00
2019-05-20T15:25:34.248Z,3.90
2019-05-20T15:28:38.324Z,3.67
2019-05-20T15:31:42.413Z,3.50
2019-05-20T15:34:46.676Z,4.17
2019-05-20T15:37:51.223Z,3.37
2019-05-20T15:40:55.119Z,3.47
2019-05-20T15:43:59.104Z,3.10
2019-05-20T15:47:02.960Z,3.30
2019-05-20T15:50:10.245Z,2.90
2019-05-20T15:53:14.023Z,2.77
2019-05-20T15:56:18.181Z,2.80
2019-05-20T15:59:22.122Z,2.83
2019-05-20T16:02:26.013Z,2.73
2019-05-20T16:05:29.925Z,2.90
2019-05-20T16:08:33.797Z,2.37
2019-05-20T16:11:38.180Z,2.00
2019-05-20T16:14:42.302Z,2.50
2019-05-20T16:17:48.465Z,2.90
2019-05-20T16:20:52.021Z,2.40
2019-05-20T16:23:58.601Z,2.57
2019-05-20T16:27:03.602Z,2.60
2019-05-20T16:30:12.787Z,2.67
2019-05-20T16:33:16.964Z,2.60
2019-05-20T16:36:21.114Z,2.23
2019-05-20T16:39:25.682Z,2.70
2019-05-20T16:42:29.918Z,2.30
2019-05-20T16:45:35.776Z,2.63
2019-05-20T16:48:39.754Z,2.40
2019-05-20T16:51:43.794Z,2.30
2019-05-20T16:54:47.769Z,2.87
2019-05-20T16:57:52.109Z,2.70
2019-05-20T17:00:57.678Z,2.63
2019-05-20T17:04:01.675Z,2.90
2019-05-20T17:07:05.622Z,2.63
2019-05-20T17:10:10.313Z,2.63
2019-05-20T17:13:14.328Z,2.63
2019-05-20T17:16:18.354Z,2.73
2019-05-20T17:19:22.306Z,2.50
2019-05-20T17:22:26.204Z,2.67
2019-05-20T17:25:30.069Z,2.63
2019-05-20T17:28:33.954Z,2.97
2019-05-20T17:31:57.260Z,2.87
2019-05-20T17:35:01.580Z,3.10
2019-05-20T17:38:44.885Z,3.07
2019-05-20T17:42:17.212Z,2.80
2019-05-20T17:45:54.966Z,2.70
2019-05-20T17:49:15.507Z,3.07
2019-05-20T17:52:19.864Z,3.40
2019-05-20T17:55:24.813Z,3.10
2019-05-20T17:58:51.552Z,2.90
2019-05-20T18:02:11.627Z,3.03
2019-05-20T18:05:45.761Z,2.97
2019-05-20T18:09:11.317Z,2.83
2019-05-20T18:12:31.635Z,3.30
2019-05-20T18:15:45.611Z,2.60
2019-05-20T18:18:49.691Z,3.20
2019-05-20T18:21:53.549Z,3.47
2019-05-20T18:24:58.040Z,3.10
2019-05-20T18:28:01.918Z,3.03
2019-05-20T18:31:05.772Z,2.90
2019-05-20T18:34:09.595Z,3.10
2019-05-20T18:37:14.121Z,3.10
2019-05-20T18:40:18.193Z,3.13
2019-05-20T18:43:22.166Z,2.90
2019-05-20T18:46:26.080Z,2.70
2019-05-20T18:49:29.914Z,3.03
2019-05-20T18:52:33.837Z,3.13
2019-05-20T18:55:37.770Z,3.10
2019-05-20T18:58:41.666Z,3.13
2019-05-20T19:01:55.964Z,3.60
2019-05-20T19:04:51.571Z,3.60
2019-05-20T19:07:55.905Z,3.70
2019-05-20T19:11:00.406Z,3.63
2019-05-20T19:14:08.312Z,3.77
2019-05-20T19:17:10.830Z,3.73
2019-05-20T19:20:14.806Z,3.60
2019-05-20T19:23:18.772Z,3.30
2019-05-20T19:26:25.309Z,3.20
2019-05-20T19:29:29.375Z,3.63
2019-05-20T19:32:34.601Z,3.67
2019-05-20T19:35:39.957Z,3.23
2019-05-20T19:38:43.927Z,3.20
2019-05-20T19:41:49.703Z,3.80
2019-05-20T19:44:54.208Z,3.60
2019-05-20T19:48:32.582Z,3.73
2019-05-20T19:51:36.847Z,4.10
2019-05-20T19:54:41.037Z,4.27
2019-05-20T19:57:45.460Z,4.10
2019-05-20T20:00:49.871Z,3.80
2019-05-20T20:03:53.686Z,4.20
2019-05-20T20:06:57.576Z,4.10
2019-05-20T20:10:01.865Z,4.23
2019-05-20T20:13:06.259Z,4.27
2019-05-20T20:16:10.299Z,4.03
2019-05-20T20:19:14.493Z,4.40
2019-05-20T20:22:18.421Z,5.27
2019-05-20T20:25:22.649Z,4.87
2019-05-20T20:28:27.106Z,5.27
2019-05-20T20:31:31.240Z,5.33
2019-05-20T20:34:35.285Z,6.10
2019-05-20T20:37:39.765Z,6.10
2019-05-20T20:40:43.772Z,5.90
2019-05-20T20:43:47.596Z,6.57
2019-05-20T20:46:51.513Z,6.53
2019-05-20T20:49:58.428Z,7.50
2019-05-20T20:53:02.540Z,7.23
2019-05-20T20:56:06.736Z,7.87
2019-05-20T20:59:10.926Z,7.53
2019-05-20T21:02:14.969Z,8.03
2019-05-20T21:05:18.868Z,7.47
2019-05-20T21:08:25.790Z,7.17
2019-05-20T21:11:30.288Z,7.00
2019-05-20T21:14:34.494Z,7.80
2019-05-20T21:17:38.723Z,7.80
2019-05-20T21:20:42.510Z,7.53
2019-05-20T21:23:46.510Z,7.17
2019-05-20T21:26:50.316Z,7.30
2019-05-20T21:30:00.748Z,8.03
2019-05-20T21:33:09.242Z,7.57
2019-05-20T21:36:11.867Z,7.63
2019-05-20T21:39:16.302Z,7.97
2019-05-20T21:42:20.681Z,7.60
2019-05-20T21:45:24.519Z,6.90
2019-05-20T21:48:28.809Z,7.13
2019-05-20T21:51:32.828Z,7.40
2019-05-20T21:54:36.768Z,7.47
2019-05-20T21:57:41.006Z,7.93
2019-05-20T22:00:53.806Z,8.23
2019-05-20T22:03:57.826Z,8.30
2019-05-20T22:07:04.806Z,9.27
2019-05-20T22:10:09.777Z,8.87
2019-05-20T22:13:14.499Z,8.17
2019-05-20T22:16:19.255Z,7.90
2019-05-20T22:19:23.320Z,8.67
2019-05-20T22:22:35.717Z,8.83
2019-05-20T22:25:39.534Z,8.30
2019-05-20T22:28:43.475Z,9.57
2019-05-20T22:31:47.372Z,8.30
2019-05-20T22:34:53.717Z,8.50
2019-05-20T22:37:56.820Z,8.20
2019-05-20T22:41:00.741Z,8.70
2019-05-20T22:44:04.702Z,9.27
2019-05-20T22:47:08.604Z,9.37
2019-05-20T22:50:12.495Z,9.33
2019-05-20T22:53:16.352Z,9.47
2019-05-20T22:56:20.940Z,9.93
2019-05-20T22:59:24.742Z,9.97
2019-05-20T23:02:28.550Z,10.63
2019-05-20T23:05:32.372Z,10.47
2019-05-20T23:08:36.249Z,9.50
2019-05-20T23:11:40.144Z,10.40
2019-05-20T23:14:44.018Z,9.30
2019-05-20T23:17:47.909Z,10.33
2019-05-20T23:20:51.759Z,10.63
2019-05-20T23:23:55.644Z,10.30
2019-05-20T23:26:59.470Z,10.27
2019-05-20T23:30:03.521Z,11.30
2019-05-20T23:33:07.368Z,10.93
2019-05-20T23:36:11.286Z,11.33
2019-05-20T23:39:15.106Z,11.80
2019-05-20T23:42:19.017Z,11.37
2019-05-20T23:45:22.942Z,11.33
2019-05-20T23:48:26.864Z,12.10
2019-05-20T23:51:30.716Z,12.93
2019-05-20T23:54:34.546Z,13.03
2019-05-20T23:57:38.372Z,13.53
